createdAt,value
2018-01-13T05:00:28.536Z,4.67
2018-01-13T05:00:54.030Z,4.62
2018-01-13T05:01:19.510Z,4.66
2018-01-13T05:01:44.985Z,4.6
2018-01-13T05:02:10.503Z,4.63
2018-01-13T05:02:36.022Z,4.7
2018-01-13T05:03:01.511Z,4.62
2018-01-13T05:03:26.975Z,4.6
2018-01-13T05:03:52.448Z,4.6
2018-01-13T05:04:17.951Z,4.71
2018-01-13T05:04:43.460Z,4.59
2018-01-13T05:05:47.065Z,4.58
2018-01-13T05:06:12.556Z,4.68
2018-01-13T05:06:38.053Z,4.56
2018-01-13T05:07:03.548Z,4.7
2018-01-13T05:07:29.079Z,4.62
2018-01-13T05:07:54.583Z,4.7
2018-01-13T05:08:58.165Z,4.66
2018-01-13T05:09:23.660Z,4.68
2018-01-13T05:09:49.126Z,4.67
2018-01-13T05:10:14.641Z,4.63
2018-01-13T05:10:40.099Z,4.66
2018-01-13T05:11:05.592Z,4.58
2018-01-13T05:11:31.088Z,4.63
2018-01-13T05:11:56.574Z,4.66
2018-01-13T05:12:22.029Z,4.63
2018-01-13T05:12:47.544Z,4.71
2018-01-13T05:13:13.016Z,4.67
2018-01-13T05:13:38.503Z,4.75
2018-01-13T05:14:03.997Z,4.71
2018-01-13T05:14:29.489Z,4.74
2018-01-13T05:14:55.015Z,4.74
2018-01-13T05:15:20.462Z,4.67
2018-01-13T05:15:45.963Z,4.74
2018-01-13T05:16:11.417Z,4.75
2018-01-13T05:16:36.945Z,4.77
2018-01-13T05:17:02.426Z,4.77
2018-01-13T05:17:27.943Z,4.71
2018-01-13T05:17:53.437Z,4.74
2018-01-13T05:18:18.945Z,4.77
2018-01-13T05:18:44.443Z,4.74
2018-01-13T05:19:43.128Z,4.77
2018-01-13T05:20:08.611Z,4.74
2018-01-13T05:20:34.107Z,4.74
2018-01-13T05:21:42.781Z,4.8
2018-01-13T05:22:08.312Z,4.7
2018-01-13T05:22:33.812Z,4.75
2018-01-13T05:22:59.290Z,4.75
2018-01-13T05:23:24.772Z,4.73
2018-01-13T05:23:50.287Z,4.71
2018-01-13T05:24:15.758Z,4.8
2018-01-13T05:24:41.304Z,4.86
2018-01-13T05:25:06.738Z,4.73
2018-01-13T05:25:32.263Z,4.7
2018-01-13T05:25:57.714Z,4.74
2018-01-13T05:26:23.185Z,4.7
2018-01-13T05:27:26.257Z,4.68
2018-01-13T05:27:51.762Z,4.77
2018-01-13T05:28:17.258Z,4.84
2018-01-13T05:28:42.760Z,4.74
2018-01-13T05:29:08.230Z,4.8
2018-01-13T05:29:33.738Z,4.73
2018-01-13T05:29:59.202Z,4.7
2018-01-13T05:30:24.725Z,4.74
2018-01-13T05:30:50.195Z,4.82
2018-01-13T05:31:15.674Z,4.87
2018-01-13T05:31:41.172Z,4.78
2018-01-13T05:32:06.656Z,4.78
2018-01-13T05:32:32.116Z,4.84
2018-01-13T05:33:20.444Z,4.84
2018-01-13T05:33:45.947Z,4.75
2018-01-13T05:34:11.449Z,4.75
2018-01-13T05:34:36.947Z,4.82
2018-01-13T05:35:02.412Z,4.77
2018-01-13T05:35:27.913Z,4.73
2018-01-13T05:35:53.376Z,4.78
2018-01-13T05:36:41.164Z,4.86
2018-01-13T05:37:06.656Z,4.73
2018-01-13T05:37:32.158Z,4.8
2018-01-13T05:37:57.646Z,4.87
2018-01-13T05:38:23.162Z,4.77
2018-01-13T05:38:48.705Z,4.78
2018-01-13T05:39:14.188Z,4.77
2018-01-13T05:39:39.719Z,4.75
2018-01-13T05:40:05.237Z,4.77
2018-01-13T05:40:53.055Z,4.87
2018-01-13T05:41:18.615Z,4.82
2018-01-13T05:41:44.121Z,4.84
2018-01-13T05:42:09.629Z,4.84
2018-01-13T05:42:35.119Z,4.87
2018-01-13T05:43:00.608Z,4.87
2018-01-13T05:43:26.112Z,4.87
2018-01-13T05:43:51.642Z,4.8
2018-01-13T05:44:17.145Z,4.78
2018-01-13T05:44:42.617Z,4.82
2018-01-13T05:45:08.128Z,4.78
2018-01-13T05:45:33.649Z,4.77
2018-01-13T05:45:59.149Z,4.8
2018-01-13T05:46:24.634Z,4.75
2018-01-13T05:46:50.137Z,4.82
2018-01-13T05:47:15.623Z,4.77
2018-01-13T05:47:41.118Z,4.77
2018-01-13T05:48:06.648Z,4.78
2018-01-13T05:48:32.131Z,4.74
2018-01-13T05:48:57.664Z,4.82
2018-01-13T05:49:23.157Z,4.87
2018-01-13T05:49:48.671Z,4.77
2018-01-13T05:50:14.168Z,4.77
2018-01-13T05:50:39.665Z,4.82
2018-01-13T05:51:05.148Z,4.8
2018-01-13T05:51:30.648Z,4.77
2018-01-13T05:51:56.105Z,4.82
2018-01-13T05:52:21.640Z,4.77
2018-01-13T05:52:47.109Z,4.82
2018-01-13T05:53:12.580Z,4.87
2018-01-13T05:53:38.073Z,4.77
2018-01-13T05:54:03.567Z,4.78
2018-01-13T05:54:29.092Z,4.82
2018-01-13T05:54:54.624Z,4.78
2018-01-13T05:55:20.144Z,4.87
2018-01-13T05:55:45.648Z,4.87
2018-01-13T05:56:11.111Z,4.8
2018-01-13T05:56:36.593Z,4.89
2018-01-13T05:57:02.073Z,4.77
2018-01-13T05:57:27.571Z,4.84
2018-01-13T05:57:53.026Z,4.78
2018-01-13T05:58:18.525Z,4.8
2018-01-13T05:58:44.011Z,4.78
2018-01-13T05:59:09.465Z,4.82
2018-01-13T05:59:34.942Z,4.78
2018-01-13T06:00:00.417Z,4.74
2018-01-13T06:00:25.896Z,4.77
2018-01-13T06:00:51.354Z,4.82
2018-01-13T06:01:16.847Z,4.87
2018-01-13T06:01:42.329Z,4.77
2018-01-13T06:02:07.792Z,4.78
2018-01-13T06:02:33.285Z,4.74
2018-01-13T06:02:58.730Z,4.8
2018-01-13T06:03:24.249Z,4.84
2018-01-13T06:03:49.741Z,4.78
2018-01-13T06:04:15.226Z,4.77
2018-01-13T06:04:40.661Z,4.8
2018-01-13T06:05:06.134Z,4.8
2018-01-13T06:05:31.676Z,4.82
2018-01-13T06:05:57.155Z,4.82
2018-01-13T06:06:22.664Z,4.82
2018-01-13T06:06:48.159Z,4.86
2018-01-13T06:07:46.818Z,4.78
2018-01-13T06:08:12.288Z,4.78
2018-01-13T06:08:37.769Z,4.8
2018-01-13T06:09:03.230Z,4.84
2018-01-13T06:09:28.697Z,4.86
2018-01-13T06:09:54.177Z,4.84
2018-01-13T06:10:19.719Z,4.92
2018-01-13T06:10:45.211Z,4.84
2018-01-13T06:11:10.707Z,4.82
2018-01-13T06:11:36.177Z,4.92
2018-01-13T06:12:01.652Z,4.86
2018-01-13T06:12:27.135Z,4.8
2018-01-13T06:12:52.655Z,4.82
2018-01-13T06:13:18.151Z,4.9
2018-01-13T06:13:43.640Z,4.9
2018-01-13T06:14:09.105Z,4.87
2018-01-13T06:14:34.608Z,4.84
2018-01-13T06:15:00.117Z,4.84
2018-01-13T06:15:25.675Z,4.92
2018-01-13T06:15:51.167Z,4.86
2018-01-13T06:16:16.676Z,4.94
2018-01-13T06:17:10.249Z,4.8
2018-01-13T06:17:35.737Z,4.8
2018-01-13T06:18:01.268Z,4.93
2018-01-13T06:18:26.718Z,4.89
2018-01-13T06:18:52.219Z,4.86
2018-01-13T06:19:17.707Z,4.93
2018-01-13T06:19:43.195Z,4.84
2018-01-13T06:20:08.722Z,4.82
2018-01-13T06:20:34.265Z,4.87
2018-01-13T06:20:59.716Z,4.82
2018-01-13T06:21:25.213Z,4.8
2018-01-13T06:21:50.688Z,4.84
2018-01-13T06:22:16.180Z,4.92
2018-01-13T06:22:41.662Z,4.9
2018-01-13T06:23:34.564Z,4.87
2018-01-13T06:24:00.048Z,4.9
2018-01-13T06:24:25.548Z,4.93
2018-01-13T06:24:51.021Z,4.92
2018-01-13T06:25:16.520Z,4.87
2018-01-13T06:25:42.022Z,4.8
2018-01-13T06:26:07.501Z,4.87
2018-01-13T06:26:32.956Z,4.86
2018-01-13T06:26:58.486Z,4.9
2018-01-13T06:27:46.308Z,4.87
2018-01-13T06:28:11.795Z,4.93
2018-01-13T06:28:37.256Z,4.96
2018-01-13T06:29:02.755Z,4.78
2018-01-13T06:29:28.228Z,4.87
2018-01-13T06:29:53.740Z,4.9
2018-01-13T06:30:19.239Z,4.86
2018-01-13T06:30:44.726Z,4.78
2018-01-13T06:31:10.242Z,4.87
2018-01-13T06:31:35.748Z,4.75
2018-01-13T06:32:01.238Z,4.86
2018-01-13T06:32:26.767Z,4.74
2018-01-13T06:32:52.236Z,4.77
2018-01-13T06:33:17.698Z,4.77
2018-01-13T06:33:43.207Z,4.77
2018-01-13T06:34:08.698Z,4.84
2018-01-13T06:34:34.191Z,4.84
2018-01-13T06:34:59.703Z,4.84
2018-01-13T06:35:25.194Z,4.84
2018-01-13T06:35:50.709Z,4.78
2018-01-13T06:36:16.198Z,4.77
2018-01-13T06:36:41.708Z,4.87
2018-01-13T06:37:07.254Z,4.77
2018-01-13T06:37:32.737Z,4.77
2018-01-13T06:37:58.251Z,4.78
2018-01-13T06:38:23.762Z,4.78
2018-01-13T06:38:49.247Z,4.8
2018-01-13T06:39:14.779Z,4.78
2018-01-13T06:39:40.225Z,4.87
2018-01-13T06:40:05.738Z,4.84
2018-01-13T06:40:31.217Z,4.77
2018-01-13T06:40:56.748Z,4.77
2018-01-13T06:41:22.264Z,4.77
2018-01-13T06:41:47.733Z,4.77
2018-01-13T06:42:13.223Z,4.8
2018-01-13T06:42:38.808Z,4.82
2018-01-13T06:43:04.265Z,4.78
2018-01-13T06:43:29.761Z,4.78
2018-01-13T06:43:55.264Z,4.86
2018-01-13T06:44:20.755Z,4.78
2018-01-13T06:44:46.291Z,4.74
2018-01-13T06:45:11.815Z,4.74
2018-01-13T06:45:37.349Z,4.77
2018-01-13T06:46:02.776Z,4.84
2018-01-13T06:46:28.294Z,4.92
2018-01-13T06:46:53.798Z,4.78
2018-01-13T06:47:19.383Z,4.84
2018-01-13T06:47:44.835Z,4.84
2018-01-13T06:48:10.399Z,4.82
2018-01-13T06:48:35.876Z,4.87
2018-01-13T06:49:01.362Z,4.84
2018-01-13T06:49:26.836Z,4.8
2018-01-13T06:49:52.308Z,4.93
2018-01-13T06:50:17.807Z,4.78
2018-01-13T06:50:43.329Z,4.87
2018-01-13T06:51:08.790Z,4.9
2018-01-13T06:51:34.305Z,4.87
2018-01-13T06:51:59.805Z,4.9
2018-01-13T06:52:25.259Z,4.94
2018-01-13T06:52:50.741Z,4.93
2018-01-13T06:53:16.246Z,4.89
2018-01-13T06:53:41.788Z,4.93
2018-01-13T06:54:35.408Z,4.87
2018-01-13T06:55:00.926Z,4.92
2018-01-13T06:55:26.452Z,4.84
2018-01-13T06:55:51.835Z,4.87
2018-01-13T06:56:17.311Z,4.9
2018-01-13T06:57:25.514Z,4.92
2018-01-13T06:57:51.011Z,4.93
2018-01-13T06:58:16.523Z,4.93
2018-01-13T06:58:41.994Z,4.92
2018-01-13T06:59:07.508Z,4.89
2018-01-13T06:59:32.997Z,4.9
2018-01-13T06:59:58.518Z,4.93
2018-01-13T07:00:56.545Z,4.93
2018-01-13T07:01:22.037Z,4.93
2018-01-13T07:01:47.572Z,4.94
2018-01-13T07:02:13.030Z,4.99
2018-01-13T07:02:38.519Z,4.84
2018-01-13T07:03:04.025Z,4.99
2018-01-13T07:03:29.553Z,4.89
2018-01-13T07:03:55.020Z,4.94
2018-01-13T07:04:20.485Z,4.94
2018-01-13T07:04:45.968Z,4.9
2018-01-13T07:05:11.490Z,4.93
2018-01-13T07:05:36.979Z,4.94
2018-01-13T07:06:29.909Z,4.86
2018-01-13T07:06:55.403Z,4.9
2018-01-13T07:07:20.880Z,4.93
2018-01-13T07:07:46.381Z,4.97
2018-01-13T07:08:11.905Z,4.92
2018-01-13T07:08:37.372Z,4.93
2018-01-13T07:09:02.815Z,4.97
2018-01-13T07:09:28.316Z,4.94
2018-01-13T07:09:53.828Z,4.9
2018-01-13T07:10:47.248Z,5
2018-01-13T07:11:12.716Z,4.96
2018-01-13T07:11:38.239Z,4.97
2018-01-13T07:12:03.723Z,4.99
2018-01-13T07:12:29.255Z,4.96
2018-01-13T07:12:54.794Z,4.9
2018-01-13T07:13:20.227Z,4.99
2018-01-13T07:13:45.788Z,4.94
2018-01-13T07:14:11.250Z,4.93
2018-01-13T07:14:36.796Z,4.96
2018-01-13T07:15:02.366Z,4.94
2018-01-13T07:15:28.251Z,4.96
2018-01-13T07:15:53.560Z,4.92
2018-01-13T07:16:19.193Z,5.02
2018-01-13T07:16:44.748Z,4.93
2018-01-13T07:17:10.311Z,5
2018-01-13T07:17:35.758Z,4.93
2018-01-13T07:18:01.264Z,5.02
2018-01-13T07:18:26.751Z,4.97
2018-01-13T07:18:52.262Z,5.05
2018-01-13T07:19:17.749Z,4.97
2018-01-13T07:19:43.197Z,4.94
2018-01-13T07:20:08.691Z,5.02
2018-01-13T07:20:34.195Z,5
2018-01-13T07:20:59.642Z,5.02
2018-01-13T07:21:25.143Z,4.99
2018-01-13T07:21:50.666Z,4.99
2018-01-13T07:22:16.153Z,5
2018-01-13T07:22:41.660Z,5.04
2018-01-13T07:23:07.087Z,5.02
2018-01-13T07:23:32.591Z,5.05
2018-01-13T07:23:58.151Z,4.93
2018-01-13T07:24:23.642Z,5.04
2018-01-13T07:24:49.126Z,4.94
2018-01-13T07:25:14.612Z,4.97
2018-01-13T07:25:40.098Z,5.05
2018-01-13T07:26:05.560Z,5.05
2018-01-13T07:26:31.065Z,5
2018-01-13T07:26:56.562Z,5.07
2018-01-13T07:27:22.027Z,5.04
2018-01-13T07:27:47.550Z,5.07
2018-01-13T07:28:13.044Z,5.05
2018-01-13T07:28:38.526Z,5.04
2018-01-13T07:29:03.976Z,5.05
2018-01-13T07:29:29.443Z,5.04
2018-01-13T07:29:54.941Z,5
2018-01-13T07:30:20.409Z,5.07
2018-01-13T07:30:45.910Z,5.05
2018-01-13T07:31:11.423Z,5.02
2018-01-13T07:31:36.859Z,5.05
2018-01-13T07:32:02.404Z,5.08
2018-01-13T07:32:27.904Z,5.05
2018-01-13T07:32:53.399Z,5.04
2018-01-13T07:33:18.891Z,5.07
2018-01-13T07:33:44.360Z,5.02
2018-01-13T07:34:37.947Z,4.99
2018-01-13T07:35:03.666Z,5.05
2018-01-13T07:35:29.137Z,5.08
2018-01-13T07:35:54.627Z,5.04
2018-01-13T07:36:20.206Z,5.07
2018-01-13T07:36:45.745Z,5.04
2018-01-13T07:37:11.247Z,5.05
2018-01-13T07:37:36.710Z,4.99
2018-01-13T07:38:02.235Z,5.07
2018-01-13T07:38:27.826Z,5.1
2018-01-13T07:38:53.366Z,5.05
2018-01-13T07:39:18.886Z,5.02
2018-01-13T07:39:44.489Z,5.05
2018-01-13T07:40:09.928Z,5.14
2018-01-13T07:40:35.385Z,5.14
2018-01-13T07:41:01.069Z,5.04
2018-01-13T07:41:26.534Z,4.99
2018-01-13T07:41:52.055Z,5.1
2018-01-13T07:42:17.542Z,5.1
2018-01-13T07:42:43.016Z,5.1
2018-01-13T07:43:08.497Z,5.05
2018-01-13T07:43:33.982Z,5.04
2018-01-13T07:43:59.499Z,5.11
2018-01-13T07:44:24.999Z,5.05
2018-01-13T07:44:50.479Z,5.12
2018-01-13T07:45:15.953Z,5.1
2018-01-13T07:45:41.447Z,5.11
2018-01-13T07:46:07.093Z,5.11
2018-01-13T07:46:32.584Z,5.04
2018-01-13T07:46:58.093Z,5.08
2018-01-13T07:47:51.531Z,5.12
2018-01-13T07:48:17.004Z,5.08
2018-01-13T07:49:11.423Z,5.12
2018-01-13T07:49:36.915Z,5.17
2018-01-13T07:50:02.435Z,5.18
2018-01-13T07:50:27.910Z,5.12
2018-01-13T07:50:53.368Z,5.08
2018-01-13T07:51:18.825Z,5.11
2018-01-13T07:51:44.327Z,5.12
2018-01-13T07:52:09.842Z,5.15
2018-01-13T07:52:35.336Z,5.12
2018-01-13T07:53:00.853Z,5.18
2018-01-13T07:53:26.371Z,5.14
2018-01-13T07:53:51.817Z,5.14
2018-01-13T07:54:17.340Z,5.11
2018-01-13T07:54:42.771Z,5.12
2018-01-13T07:55:08.271Z,5.08
2018-01-13T07:55:33.721Z,5.2
2018-01-13T07:55:59.210Z,5.15
2018-01-13T07:56:24.689Z,5.14
2018-01-13T07:56:50.228Z,5.21
2018-01-13T07:57:15.736Z,5.18
2018-01-13T07:57:41.137Z,5.17
2018-01-13T07:58:06.675Z,5.14
2018-01-13T07:58:32.105Z,5.12
2018-01-13T07:58:57.608Z,5.15
2018-01-13T07:59:23.144Z,5.14
2018-01-13T07:59:48.622Z,5.11
2018-01-13T08:00:14.076Z,5.1
2018-01-13T08:01:17.801Z,5.17
2018-01-13T08:01:43.314Z,5.17
2018-01-13T08:02:08.806Z,5.11
2018-01-13T08:02:34.298Z,5.15
2018-01-13T08:02:59.813Z,5.18
2018-01-13T08:03:25.299Z,5.23
2018-01-13T08:03:50.781Z,5.18
2018-01-13T08:04:16.238Z,5.15
2018-01-13T08:04:41.736Z,5.11
2018-01-13T08:05:07.182Z,5.15
2018-01-13T08:05:32.684Z,5.17
2018-01-13T08:05:58.162Z,5.1
2018-01-13T08:06:23.674Z,5.14
2018-01-13T08:06:49.469Z,5.15
2018-01-13T08:07:15.249Z,5.17
2018-01-13T08:07:41.512Z,5.17
2018-01-13T08:08:07.699Z,5.14
2018-01-13T08:08:33.999Z,5.11
2018-01-13T08:08:59.788Z,5.1
2018-01-13T08:09:25.273Z,5.11
2018-01-13T08:10:35.313Z,5.18
2018-01-13T08:11:02.348Z,5.14
2018-01-13T08:11:26.540Z,5.15
2018-01-13T08:11:52.283Z,5.15
2018-01-13T08:12:17.954Z,5.12
2018-01-13T08:12:44.069Z,5.15
2018-01-13T08:13:09.596Z,5.14
2018-01-13T08:13:35.047Z,5.2
2018-01-13T08:14:00.509Z,5.15
2018-01-13T08:14:26.005Z,5.17
2018-01-13T08:15:29.614Z,5.15
2018-01-13T08:15:55.092Z,5.12
2018-01-13T08:16:20.595Z,5.11
2018-01-13T08:16:46.103Z,5.15
2018-01-13T08:17:11.606Z,5.12
2018-01-13T08:17:37.106Z,5.11
2018-01-13T08:18:02.646Z,5.18
2018-01-13T08:18:28.112Z,5.11
2018-01-13T08:18:53.656Z,5.17
2018-01-13T08:19:19.150Z,5.15
2018-01-13T08:19:44.581Z,5.15
2018-01-13T08:20:10.064Z,5.15
2018-01-13T08:20:35.547Z,5.14
2018-01-13T08:21:28.972Z,5.18
2018-01-13T08:21:54.488Z,5.25
2018-01-13T08:22:19.984Z,5.07
2018-01-13T08:22:45.440Z,5.2
2018-01-13T08:23:10.949Z,5.17
2018-01-13T08:23:36.429Z,5.17
2018-01-13T08:24:01.925Z,5.26
2018-01-13T08:24:27.422Z,5.21
2018-01-13T08:24:52.939Z,5.26
2018-01-13T08:25:18.417Z,5.21
2018-01-13T08:25:43.908Z,5.25
2018-01-13T08:26:09.426Z,5.23
2018-01-13T08:26:34.962Z,5.25
2018-01-13T08:27:00.470Z,5.28
2018-01-13T08:27:25.966Z,5.29
2018-01-13T08:27:51.422Z,5.29
2018-01-13T08:28:16.911Z,5.3
2018-01-13T08:29:20.531Z,5.25
2018-01-13T08:29:46.004Z,5.29
2018-01-13T08:30:11.490Z,5.23
2018-01-13T08:30:36.997Z,5.25
2018-01-13T08:31:02.487Z,5.2
2018-01-13T08:31:27.973Z,5.21
2018-01-13T08:31:53.450Z,5.35
2018-01-13T08:32:18.949Z,5.28
2018-01-13T08:32:44.498Z,5.38
2018-01-13T08:33:09.989Z,5.29
2018-01-13T08:33:35.509Z,5.35
2018-01-13T08:34:00.964Z,5.38
2018-01-13T08:34:26.430Z,5.33
2018-01-13T08:34:51.961Z,5.32
2018-01-13T08:35:55.566Z,5.33
2018-01-13T08:36:21.081Z,5.36
2018-01-13T08:36:46.566Z,5.35
2018-01-13T08:37:12.014Z,5.3
2018-01-13T08:37:37.504Z,5.35
2018-01-13T08:38:03.010Z,5.32
2018-01-13T08:38:28.503Z,5.36
2018-01-13T08:39:37.209Z,5.3
2018-01-13T08:40:02.674Z,5.43
2018-01-13T08:40:28.144Z,5.38
2018-01-13T08:40:53.626Z,5.51
2018-01-13T08:41:19.147Z,5.41
2018-01-13T08:41:44.615Z,5.48
2018-01-13T08:42:10.205Z,5.38
2018-01-13T08:42:35.729Z,5.46
2018-01-13T08:43:01.301Z,5.41
2018-01-13T08:44:05.283Z,5.36
2018-01-13T08:44:30.881Z,5.44
2018-01-13T08:44:56.354Z,5.39
2018-01-13T08:45:21.828Z,5.46
2018-01-13T08:45:47.314Z,5.36
2018-01-13T08:46:12.823Z,5.39
2018-01-13T08:46:38.478Z,5.47
2018-01-13T08:47:03.923Z,5.54
2018-01-13T08:47:29.487Z,5.51
2018-01-13T08:47:54.968Z,5.47
2018-01-13T08:48:20.478Z,5.5
2018-01-13T08:48:45.994Z,5.53
2018-01-13T08:49:44.518Z,5.47
2018-01-13T08:50:10.084Z,5.56
2018-01-13T08:50:35.576Z,5.57
2018-01-13T08:51:01.052Z,5.51
2018-01-13T08:51:26.637Z,5.53
2018-01-13T08:51:52.144Z,5.59
2018-01-13T08:52:17.720Z,5.51
2018-01-13T08:52:43.159Z,5.59
2018-01-13T08:53:08.599Z,5.65
2018-01-13T08:53:34.072Z,5.64
2018-01-13T08:54:37.687Z,5.59
2018-01-13T08:55:03.199Z,5.61
2018-01-13T08:55:28.647Z,5.62
2018-01-13T08:55:54.157Z,5.56
2018-01-13T08:56:47.579Z,5.62
2018-01-13T08:57:13.080Z,5.62
2018-01-13T08:57:38.587Z,5.62
2018-01-13T08:58:04.031Z,5.56
2018-01-13T08:58:29.544Z,5.54
2018-01-13T08:58:55.019Z,5.47
2018-01-13T08:59:20.545Z,5.62
2018-01-13T08:59:46.012Z,5.56
2018-01-13T09:00:11.595Z,5.59
2018-01-13T09:00:37.086Z,5.59
2018-01-13T09:01:02.602Z,5.54
2018-01-13T09:01:28.160Z,5.54
2018-01-13T09:01:53.651Z,5.56
2018-01-13T09:02:19.140Z,5.53
2018-01-13T09:02:44.634Z,5.56
2018-01-13T09:03:10.125Z,5.62
2018-01-13T09:03:35.625Z,5.57
2018-01-13T09:04:01.155Z,5.51
2018-01-13T09:04:26.717Z,5.54
2018-01-13T09:04:52.227Z,5.54
2018-01-13T09:05:17.767Z,5.57
2018-01-13T09:05:43.253Z,5.59
2018-01-13T09:06:08.796Z,5.53
2018-01-13T09:06:34.314Z,5.54
2018-01-13T09:06:59.757Z,5.61
2018-01-13T09:07:25.295Z,5.57
2018-01-13T09:07:50.783Z,5.64
2018-01-13T09:08:16.242Z,5.65
2018-01-13T09:08:41.733Z,5.65
2018-01-13T09:09:07.229Z,5.64
2018-01-13T09:09:32.710Z,5.59
2018-01-13T09:10:36.358Z,5.71
2018-01-13T09:11:01.862Z,5.65
2018-01-13T09:11:27.359Z,5.57
2018-01-13T09:11:52.862Z,5.61
2018-01-13T09:12:18.368Z,5.65
2018-01-13T09:12:43.856Z,5.66
2018-01-13T09:13:09.352Z,5.68
2018-01-13T09:13:34.812Z,5.56
2018-01-13T09:14:00.290Z,5.57
2018-01-13T09:14:25.797Z,5.66
2018-01-13T09:14:51.374Z,5.56
2018-01-13T09:15:16.882Z,5.65
2018-01-13T09:15:42.333Z,5.69
2018-01-13T09:16:07.867Z,5.62
2018-01-13T09:16:33.367Z,5.54
2018-01-13T09:16:58.843Z,5.66
2018-01-13T09:17:24.352Z,5.64
2018-01-13T09:17:49.878Z,5.61
2018-01-13T09:18:15.368Z,5.56
2018-01-13T09:18:40.861Z,5.64
2018-01-13T09:19:06.362Z,5.56
2018-01-13T09:19:31.882Z,5.57
2018-01-13T09:19:57.344Z,5.57
2018-01-13T09:20:22.820Z,5.65
2018-01-13T09:20:48.287Z,5.61
2018-01-13T09:21:13.776Z,5.57
2018-01-13T09:21:39.273Z,5.61
2018-01-13T09:22:04.767Z,5.62
2018-01-13T09:22:30.243Z,5.59
2018-01-13T09:22:55.760Z,5.62
2018-01-13T09:23:21.254Z,5.65
2018-01-13T09:23:46.725Z,5.72
2018-01-13T09:24:12.225Z,5.65
2018-01-13T09:24:37.751Z,5.71
2018-01-13T09:25:03.256Z,5.71
2018-01-13T09:25:28.732Z,5.69
2018-01-13T09:25:54.224Z,5.71
2018-01-13T09:26:48.031Z,5.72
2018-01-13T09:27:13.499Z,5.69
2018-01-13T09:27:39.027Z,5.72
2018-01-13T09:28:04.528Z,5.72
2018-01-13T09:28:30.047Z,5.71
2018-01-13T09:28:55.531Z,5.71
2018-01-13T09:29:48.981Z,5.72
2018-01-13T09:30:14.474Z,5.71
2018-01-13T09:30:40.017Z,5.75
2018-01-13T09:31:05.526Z,5.76
2018-01-13T09:31:30.986Z,5.76
2018-01-13T09:31:56.454Z,5.76
2018-01-13T09:32:21.895Z,5.75
2018-01-13T09:32:47.416Z,5.73
2018-01-13T09:33:12.904Z,5.73
2018-01-13T09:33:38.417Z,5.76
2018-01-13T09:34:03.906Z,5.72
2018-01-13T09:35:02.424Z,5.76
2018-01-13T09:35:27.931Z,5.72
2018-01-13T09:35:53.420Z,5.79
2018-01-13T09:36:18.889Z,5.75
2018-01-13T09:36:44.377Z,5.82
2018-01-13T09:37:09.893Z,5.79
2018-01-13T09:37:35.369Z,5.75
2018-01-13T09:38:00.881Z,5.76
2018-01-13T09:38:26.361Z,5.73
2018-01-13T09:38:51.853Z,5.79
2018-01-13T09:39:45.257Z,5.72
2018-01-13T09:40:10.742Z,5.79
2018-01-13T09:40:36.200Z,5.75
2018-01-13T09:41:01.713Z,5.72
2018-01-13T09:41:27.215Z,5.82
2018-01-13T09:41:52.704Z,5.79
2018-01-13T09:42:18.218Z,5.89
2018-01-13T09:42:43.720Z,5.82
2018-01-13T09:43:09.186Z,5.75
2018-01-13T09:43:34.671Z,5.83
2018-01-13T09:44:00.136Z,5.82
2018-01-13T09:44:25.612Z,5.86
2018-01-13T09:44:51.147Z,5.8
2018-01-13T09:45:16.707Z,5.76
2018-01-13T09:45:42.196Z,5.87
2018-01-13T09:46:07.697Z,5.84
2018-01-13T09:46:33.158Z,5.8
2018-01-13T09:46:58.670Z,5.86
2018-01-13T09:47:24.129Z,5.91
2018-01-13T09:47:49.629Z,5.83
2018-01-13T09:48:15.139Z,5.9
2018-01-13T09:48:40.628Z,5.9
2018-01-13T09:49:06.133Z,5.9
2018-01-13T09:49:31.647Z,5.87
2018-01-13T09:49:57.239Z,5.98
2018-01-13T09:50:22.747Z,5.91
2018-01-13T09:50:48.272Z,5.9
2018-01-13T09:51:13.754Z,6.01
2018-01-13T09:51:39.286Z,6.01
2018-01-13T09:52:04.805Z,5.94
2018-01-13T09:52:30.320Z,5.9
2018-01-13T09:52:55.789Z,5.94
2018-01-13T09:53:21.284Z,5.94
2018-01-13T09:53:46.743Z,5.94
2018-01-13T09:54:12.234Z,5.93
2018-01-13T09:54:37.873Z,5.99
2018-01-13T09:55:03.526Z,5.99
2018-01-13T09:55:29.010Z,5.98
2018-01-13T09:55:54.483Z,6.08
2018-01-13T09:56:20.047Z,6.05
2018-01-13T09:56:45.623Z,5.98
2018-01-13T09:57:33.933Z,5.99
2018-01-13T09:57:59.462Z,6.02
2018-01-13T09:58:24.901Z,6.05
2018-01-13T09:58:50.393Z,6.11
2018-01-13T09:59:15.934Z,6.04
2018-01-13T09:59:41.437Z,6.02
2018-01-13T10:00:06.921Z,6.05
2018-01-13T10:00:32.379Z,6.08
2018-01-13T10:00:57.847Z,6.12
2018-01-13T10:01:23.316Z,6.09
2018-01-13T10:01:48.816Z,6.05
2018-01-13T10:02:14.361Z,6.12
2018-01-13T10:03:07.815Z,6.11
2018-01-13T10:03:33.331Z,6.07
2018-01-13T10:03:58.840Z,6.12
2018-01-13T10:04:24.308Z,6.09
2018-01-13T10:04:49.848Z,6.17
2018-01-13T10:05:15.342Z,6.16
2018-01-13T10:06:08.252Z,6.19
2018-01-13T10:06:33.770Z,6.16
2018-01-13T10:06:59.244Z,6.22
2018-01-13T10:07:24.766Z,6.19
2018-01-13T10:07:50.216Z,6.2
2018-01-13T10:08:15.699Z,6.22
2018-01-13T10:08:41.240Z,6.19
2018-01-13T10:09:06.729Z,6.14
2018-01-13T10:09:32.216Z,6.2
2018-01-13T10:09:57.682Z,6.2
2018-01-13T10:10:23.212Z,6.17
2018-01-13T10:10:48.741Z,6.17
2018-01-13T10:11:14.229Z,6.17
2018-01-13T10:11:39.828Z,6.16
2018-01-13T10:12:05.346Z,6.22
2018-01-13T10:12:30.836Z,6.26
2018-01-13T10:12:56.334Z,6.19
2018-01-13T10:13:21.837Z,6.24
2018-01-13T10:13:47.300Z,6.24
2018-01-13T10:14:12.802Z,6.24
2018-01-13T10:14:38.346Z,6.17
2018-01-13T10:15:03.887Z,6.2
2018-01-13T10:15:29.495Z,6.26
2018-01-13T10:15:55.043Z,6.22
2018-01-13T10:16:20.546Z,6.17
2018-01-13T10:16:46.078Z,6.2
2018-01-13T10:17:11.603Z,6.17
2018-01-13T10:17:37.120Z,6.22
2018-01-13T10:18:02.599Z,6.26
2018-01-13T10:18:28.081Z,6.2
2018-01-13T10:18:53.660Z,6.19
2018-01-13T10:19:19.136Z,6.22
2018-01-13T10:19:44.643Z,6.2
2018-01-13T10:20:10.176Z,6.19
2018-01-13T10:20:35.725Z,6.33
2018-01-13T10:21:01.173Z,6.22
2018-01-13T10:21:26.654Z,6.31
2018-01-13T10:21:52.140Z,6.27
2018-01-13T10:22:17.622Z,6.24
2018-01-13T10:22:43.107Z,6.22
2018-01-13T10:23:08.615Z,6.28
2018-01-13T10:23:34.119Z,6.31
2018-01-13T10:23:59.675Z,6.3
2018-01-13T10:24:25.156Z,6.27
2018-01-13T10:24:50.647Z,6.33
2018-01-13T10:25:16.155Z,6.27
2018-01-13T10:25:41.678Z,6.3
2018-01-13T10:26:07.201Z,6.27
2018-01-13T10:26:32.732Z,6.31
2018-01-13T10:26:58.201Z,6.3
2018-01-13T10:27:23.733Z,6.31
2018-01-13T10:27:49.176Z,6.3
2018-01-13T10:28:14.652Z,6.3
2018-01-13T10:28:40.121Z,6.22
2018-01-13T10:29:05.591Z,6.27
2018-01-13T10:29:31.058Z,6.3
2018-01-13T10:29:56.591Z,6.27
2018-01-13T10:30:22.085Z,6.3
2018-01-13T10:30:47.568Z,6.27
2018-01-13T10:31:13.063Z,6.28
2018-01-13T10:31:38.606Z,6.31
2018-01-13T10:32:04.078Z,6.28
2018-01-13T10:32:29.582Z,6.3
2018-01-13T10:32:55.085Z,6.27
2018-01-13T10:33:20.545Z,6.31
2018-01-13T10:33:46.017Z,6.27
2018-01-13T10:34:11.528Z,6.27
2018-01-13T10:34:37.016Z,6.27
2018-01-13T10:35:02.494Z,6.36
2018-01-13T10:35:28.006Z,6.35
2018-01-13T10:35:53.483Z,6.35
2018-01-13T10:36:18.999Z,6.33
2018-01-13T10:36:44.489Z,6.36
2018-01-13T10:37:09.963Z,6.38
2018-01-13T10:37:35.470Z,6.36
2018-01-13T10:38:00.997Z,6.39
2018-01-13T10:38:26.497Z,6.42
2018-01-13T10:39:25.029Z,6.45
2018-01-13T10:39:50.521Z,6.42
2018-01-13T10:40:16.067Z,6.42
2018-01-13T10:40:41.493Z,6.38
2018-01-13T10:41:06.980Z,6.48
2018-01-13T10:41:32.482Z,6.48
2018-01-13T10:42:25.875Z,6.44
2018-01-13T10:42:51.388Z,6.46
2018-01-13T10:43:16.845Z,6.46
2018-01-13T10:43:42.370Z,6.48
2018-01-13T10:44:07.853Z,6.44
2018-01-13T10:44:33.367Z,6.49
2018-01-13T10:44:58.834Z,6.42
2018-01-13T10:45:24.288Z,6.45
2018-01-13T10:45:49.778Z,6.52
2018-01-13T10:46:15.270Z,6.46
2018-01-13T10:46:40.772Z,6.48
2018-01-13T10:47:06.273Z,6.52
2018-01-13T10:48:14.958Z,6.54
2018-01-13T10:48:40.481Z,6.45
2018-01-13T10:49:05.969Z,6.62
2018-01-13T10:49:31.507Z,6.52
2018-01-13T10:49:56.938Z,6.54
2018-01-13T10:50:22.468Z,6.52
2018-01-13T10:50:47.970Z,6.62
2018-01-13T10:51:46.508Z,6.57
2018-01-13T10:52:11.995Z,6.51
2018-01-13T10:52:37.482Z,6.57
2018-01-13T10:53:02.967Z,6.57
2018-01-13T10:53:28.496Z,6.59
2018-01-13T10:53:54.164Z,6.56
2018-01-13T10:54:19.707Z,6.6
2018-01-13T10:54:45.222Z,6.57
2018-01-13T10:55:10.712Z,6.62
2018-01-13T10:55:36.211Z,6.67
2018-01-13T10:56:01.696Z,6.64
2018-01-13T10:56:27.209Z,6.67
2018-01-13T10:57:20.627Z,6.64
2018-01-13T10:57:46.127Z,6.64
2018-01-13T10:58:11.610Z,6.67
2018-01-13T10:58:37.118Z,6.56
2018-01-13T10:59:02.567Z,6.66
2018-01-13T10:59:28.053Z,6.56
2018-01-13T10:59:53.539Z,6.66
2018-01-13T11:00:19.029Z,6.64
2018-01-13T11:00:44.526Z,6.72
2018-01-13T11:01:09.962Z,6.6
2018-01-13T11:01:35.496Z,6.64
2018-01-13T11:02:01.043Z,6.64
2018-01-13T11:02:26.491Z,6.7
2018-01-13T11:02:51.969Z,6.56
2018-01-13T11:03:17.459Z,6.6
2018-01-13T11:03:42.921Z,6.62
2018-01-13T11:04:08.425Z,6.66
2018-01-13T11:05:17.115Z,6.74